createdAt,value
2022-07-31T00:00:08.608Z,22.11
2022-07-31T00:02:35.365Z,22.09
2022-07-31T00:05:02.564Z,22.06
2022-07-31T00:07:29.023Z,22.05
2022-07-31T00:09:56.176Z,22.03
2022-07-31T00:12:23.004Z,22.00
2022-07-31T00:14:49.731Z,21.97
2022-07-31T00:17:16.190Z,21.96
2022-07-31T00:19:42.810Z,21.95
2022-07-31T00:22:09.353Z,21.91
2022-07-31T00:24:35.743Z,21.88
2022-07-31T00:27:02.489Z,21.84
2022-07-31T00:29:29.111Z,21.83
2022-07-31T00:31:55.539Z,21.81
2022-07-31T00:34:22.134Z,21.75
2022-07-31T00:36:48.793Z,21.73
2022-07-31T00:39:15.777Z,21.72
2022-07-31T00:41:44.669Z,21.70
2022-07-31T00:44:12.684Z,21.66
2022-07-31T00:46:40.196Z,21.62
2022-07-31T00:49:10.062Z,21.59
2022-07-31T00:51:40.854Z,21.56
2022-07-31T00:54:08.615Z,21.52
2022-07-31T00:56:35.538Z,21.49
2022-07-31T00:59:02.605Z,21.44
2022-07-31T01:01:29.289Z,21.41
2022-07-31T01:03:55.775Z,21.35
2022-07-31T01:06:22.364Z,21.34
2022-07-31T01:08:48.924Z,21.28
2022-07-31T01:11:36.131Z,21.25
2022-07-31T01:14:09.292Z,21.15
2022-07-31T01:16:40.643Z,21.09
2022-07-31T01:19:40.861Z,21.04
2022-07-31T01:22:32.977Z,20.97
2022-07-31T01:25:15.717Z,20.92
2022-07-31T01:28:08.161Z,20.85
2022-07-31T01:31:17.282Z,20.84
2022-07-31T01:33:50.753Z,20.81
2022-07-31T01:36:22.055Z,20.80
2022-07-31T01:38:53.935Z,20.80
2022-07-31T01:41:26.693Z,20.79
2022-07-31T01:43:55.720Z,20.75
2022-07-31T01:46:24.914Z,20.74
2022-07-31T01:48:54.766Z,20.73
2022-07-31T01:51:22.770Z,20.72
2022-07-31T01:53:51.084Z,20.71
2022-07-31T01:56:19.225Z,20.71
2022-07-31T01:58:48.265Z,20.71
2022-07-31T02:01:15.543Z,20.66
2022-07-31T02:03:45.392Z,20.63
2022-07-31T02:06:14.837Z,20.62
2022-07-31T02:08:45.001Z,20.58
2022-07-31T02:11:12.359Z,20.53
2022-07-31T02:13:38.858Z,20.50
2022-07-31T02:16:06.409Z,20.47
2022-07-31T02:18:34.751Z,20.45
2022-07-31T02:21:01.436Z,20.42
2022-07-31T02:23:29.952Z,20.36
2022-07-31T02:25:57.406Z,20.33
2022-07-31T02:28:24.527Z,20.31
2022-07-31T02:30:52.049Z,20.29
2022-07-31T02:33:21.943Z,20.27
2022-07-31T02:35:50.997Z,20.25
2022-07-31T02:38:23.242Z,20.24
2022-07-31T02:40:53.139Z,20.19
2022-07-31T02:43:20.758Z,20.18
2022-07-31T02:45:47.930Z,20.17
2022-07-31T02:48:14.807Z,20.16
2022-07-31T02:50:42.439Z,20.14
2022-07-31T02:53:08.978Z,20.13
2022-07-31T02:55:36.096Z,20.10
2022-07-31T02:58:03.622Z,20.05
2022-07-31T03:00:30.887Z,20.02
2022-07-31T03:02:58.231Z,20.02
2022-07-31T03:05:24.894Z,20.00
2022-07-31T03:07:51.629Z,19.97
2022-07-31T03:10:18.356Z,19.95
2022-07-31T03:12:47.596Z,19.93
2022-07-31T03:15:16.440Z,19.92
2022-07-31T03:17:45.256Z,19.91
2022-07-31T03:20:15.181Z,19.90
2022-07-31T03:22:42.975Z,19.90
2022-07-31T03:25:10.390Z,19.92
2022-07-31T03:27:36.880Z,19.93
2022-07-31T03:30:04.936Z,19.90
2022-07-31T03:32:31.376Z,19.90
2022-07-31T03:34:57.859Z,19.90
2022-07-31T03:37:24.288Z,19.89
2022-07-31T03:39:50.708Z,19.87
2022-07-31T03:42:19.371Z,19.87
2022-07-31T03:44:47.888Z,19.87
2022-07-31T03:47:16.670Z,19.87
2022-07-31T03:49:43.867Z,19.85
2022-07-31T03:52:12.613Z,19.85
2022-07-31T03:54:40.615Z,19.86
2022-07-31T03:57:08.476Z,19.87
2022-07-31T03:59:40.729Z,19.88
2022-07-31T04:02:17.209Z,19.87
2022-07-31T04:04:45.405Z,19.87
2022-07-31T04:07:11.968Z,19.89
2022-07-31T04:09:38.688Z,19.89
2022-07-31T04:12:06.074Z,19.87
2022-07-31T04:14:32.964Z,19.86
2022-07-31T04:16:59.626Z,19.84
2022-07-31T04:19:26.064Z,19.84
2022-07-31T04:21:52.513Z,19.87
2022-07-31T04:24:20.833Z,19.87
2022-07-31T04:26:49.651Z,19.91
2022-07-31T04:29:17.041Z,19.93
2022-07-31T04:31:43.448Z,19.96
2022-07-31T04:34:09.849Z,19.98
2022-07-31T04:36:36.374Z,20.01
2022-07-31T04:39:03.028Z,20.05
2022-07-31T04:41:29.536Z,20.06
2022-07-31T04:43:59.906Z,20.10
2022-07-31T04:46:26.716Z,20.10
2022-07-31T04:48:53.492Z,20.11
2022-07-31T04:51:23.420Z,20.12
2022-07-31T04:53:51.065Z,20.13
2022-07-31T04:56:35.668Z,20.15
2022-07-31T04:59:05.352Z,20.19
2022-07-31T05:01:32.559Z,20.22
2022-07-31T05:03:59.591Z,20.24
2022-07-31T05:06:46.763Z,20.28
2022-07-31T05:09:19.230Z,20.31
2022-07-31T05:11:49.809Z,20.34
2022-07-31T05:14:18.985Z,20.37
2022-07-31T05:16:45.799Z,20.40
2022-07-31T05:19:13.791Z,20.42
2022-07-31T05:21:53.173Z,20.42
2022-07-31T05:24:33.093Z,20.42
2022-07-31T05:27:02.330Z,20.43
2022-07-31T05:29:29.254Z,20.44
2022-07-31T05:31:59.410Z,20.46
2022-07-31T05:34:29.241Z,20.49
2022-07-31T05:36:57.211Z,20.55
2022-07-31T05:39:25.083Z,20.60
2022-07-31T05:41:52.736Z,20.67
2022-07-31T05:44:19.226Z,20.72
2022-07-31T05:46:45.744Z,20.79
2022-07-31T05:49:12.285Z,20.84
2022-07-31T05:51:38.765Z,20.90
2022-07-31T05:54:05.243Z,20.95
2022-07-31T05:56:31.676Z,21.01
2022-07-31T05:58:58.108Z,21.07
2022-07-31T06:01:24.554Z,21.13
2022-07-31T06:03:52.086Z,21.23
2022-07-31T06:06:19.113Z,21.31
2022-07-31T06:08:45.593Z,21.39
2022-07-31T06:11:12.082Z,21.46
2022-07-31T06:13:38.493Z,21.51
2022-07-31T06:16:11.188Z,21.60
2022-07-31T06:18:37.618Z,21.67
2022-07-31T06:21:04.195Z,21.78
2022-07-31T06:23:32.251Z,21.89
2022-07-31T06:25:58.932Z,22.02
2022-07-31T06:28:47.599Z,22.13
2022-07-31T06:31:19.326Z,22.27
2022-07-31T06:33:48.049Z,22.33
2022-07-31T06:36:15.350Z,22.38
2022-07-31T06:38:41.835Z,22.45
2022-07-31T06:41:08.242Z,22.52
2022-07-31T06:43:34.633Z,22.60
2022-07-31T06:46:01.040Z,22.70
2022-07-31T06:48:27.522Z,22.82
2022-07-31T06:51:14.476Z,22.93
2022-07-31T06:53:41.509Z,23.05
2022-07-31T06:56:07.890Z,23.14
2022-07-31T06:58:34.376Z,23.18
2022-07-31T07:01:00.784Z,23.16
2022-07-31T07:03:27.218Z,23.21
2022-07-31T07:05:53.644Z,23.21
2022-07-31T07:08:20.051Z,23.26
2022-07-31T07:10:46.484Z,23.33
2022-07-31T07:13:12.920Z,23.44
2022-07-31T07:15:39.316Z,23.54
2022-07-31T07:18:06.909Z,23.62
2022-07-31T07:20:33.411Z,23.70
2022-07-31T07:22:59.801Z,23.76
2022-07-31T07:25:26.219Z,23.82
2022-07-31T07:27:53.702Z,23.83
2022-07-31T07:30:20.128Z,23.86
2022-07-31T07:32:46.511Z,23.91
2022-07-31T07:35:12.921Z,23.95
2022-07-31T07:37:40.950Z,24.00
2022-07-31T07:40:08.989Z,24.02
2022-07-31T07:42:35.493Z,24.06
2022-07-31T07:45:03.425Z,24.09
2022-07-31T07:47:53.711Z,24.10
2022-07-31T07:50:22.818Z,24.12
2022-07-31T07:52:54.138Z,24.14
2022-07-31T07:55:20.592Z,24.17
2022-07-31T07:57:46.994Z,24.15
2022-07-31T08:00:13.996Z,24.18
2022-07-31T08:02:41.257Z,24.20
2022-07-31T08:05:07.787Z,24.20
2022-07-31T08:07:42.862Z,24.24
2022-07-31T08:10:10.237Z,24.26
2022-07-31T08:12:37.207Z,24.26
2022-07-31T08:15:04.407Z,24.30
2022-07-31T08:17:30.865Z,24.33
2022-07-31T08:19:57.341Z,24.29
2022-07-31T08:22:23.777Z,24.30
2022-07-31T08:24:50.239Z,24.31
2022-07-31T08:27:39.308Z,24.28
2022-07-31T08:30:07.861Z,24.28
2022-07-31T08:32:34.424Z,24.33
2022-07-31T08:35:00.906Z,24.42
2022-07-31T08:38:01.801Z,24.49
2022-07-31T08:40:13.849Z,24.61
2022-07-31T08:42:40.231Z,24.69
2022-07-31T08:45:08.007Z,24.84
2022-07-31T08:47:36.159Z,24.94
2022-07-31T08:50:05.489Z,25.00
2022-07-31T08:52:34.214Z,25.09
2022-07-31T08:55:06.114Z,25.17
2022-07-31T08:57:32.990Z,25.27
2022-07-31T08:59:59.447Z,25.32
2022-07-31T09:02:25.924Z,25.32
2022-07-31T09:04:52.978Z,25.39
2022-07-31T09:07:19.579Z,25.38
2022-07-31T09:09:52.176Z,25.33
2022-07-31T09:12:34.259Z,25.29
2022-07-31T09:15:01.503Z,25.28
2022-07-31T09:17:35.662Z,25.30
2022-07-31T09:20:03.606Z,25.31
2022-07-31T09:22:31.190Z,25.42
2022-07-31T09:25:08.694Z,25.57
2022-07-31T09:27:36.212Z,25.72
2022-07-31T09:30:02.889Z,25.85
2022-07-31T09:32:29.361Z,25.97
2022-07-31T09:35:09.850Z,26.11
2022-07-31T09:37:36.615Z,26.18
2022-07-31T09:40:04.057Z,26.29
2022-07-31T09:42:48.602Z,26.31
2022-07-31T09:45:24.189Z,26.32
2022-07-31T09:48:08.521Z,26.34
2022-07-31T09:50:52.053Z,26.42
2022-07-31T09:53:19.716Z,26.47
2022-07-31T09:55:53.010Z,26.58
2022-07-31T09:58:20.706Z,26.67
2022-07-31T10:00:50.130Z,26.67
2022-07-31T10:03:18.732Z,26.81
2022-07-31T10:05:46.837Z,26.95
2022-07-31T10:08:14.234Z,27.03
2022-07-31T10:10:43.829Z,27.04
2022-07-31T10:13:15.316Z,26.95
2022-07-31T10:15:45.610Z,26.96
2022-07-31T10:18:12.431Z,27.13
2022-07-31T10:20:41.280Z,27.27
2022-07-31T10:23:22.670Z,27.48
2022-07-31T10:25:54.554Z,27.75
2022-07-31T10:28:22.242Z,28.02
2022-07-31T10:30:49.923Z,28.28
2022-07-31T10:33:42.611Z,28.48
2022-07-31T10:36:18.333Z,28.68
2022-07-31T10:38:58.515Z,28.74
2022-07-31T10:41:41.399Z,28.77
2022-07-31T10:44:16.706Z,28.78
2022-07-31T10:46:43.212Z,28.79
2022-07-31T10:49:10.491Z,28.71
2022-07-31T10:51:50.860Z,28.71
2022-07-31T10:54:17.476Z,28.70
2022-07-31T10:56:46.189Z,28.77
2022-07-31T10:59:12.928Z,28.71
2022-07-31T11:02:05.744Z,28.79
2022-07-31T11:04:32.706Z,28.86
2022-07-31T11:07:00.026Z,29.06
2022-07-31T11:09:29.137Z,29.38
2022-07-31T11:11:56.458Z,29.75
2022-07-31T11:14:37.715Z,30.05
2022-07-31T11:17:04.714Z,30.18
2022-07-31T11:19:43.488Z,30.39
2022-07-31T11:22:31.697Z,30.60
2022-07-31T11:24:59.172Z,30.64
2022-07-31T11:27:33.020Z,30.64
2022-07-31T11:30:11.006Z,30.69
2022-07-31T11:32:39.345Z,30.86
2022-07-31T11:35:06.238Z,31.01
2022-07-31T11:37:46.580Z,30.92
2022-07-31T11:40:22.318Z,30.85
2022-07-31T11:43:23.101Z,30.73
2022-07-31T11:45:52.601Z,30.66
2022-07-31T11:48:20.435Z,30.54
2022-07-31T11:50:48.753Z,30.39
2022-07-31T11:53:16.071Z,30.20
2022-07-31T11:55:57.162Z,30.07
2022-07-31T11:58:28.948Z,29.97
2022-07-31T12:00:58.311Z,29.82
2022-07-31T12:03:30.319Z,29.68
2022-07-31T12:05:56.937Z,29.82
2022-07-31T12:08:25.672Z,30.10
2022-07-31T12:11:02.612Z,30.42
2022-07-31T12:13:30.136Z,30.71
2022-07-31T12:16:07.986Z,30.98
2022-07-31T12:18:48.783Z,31.11
2022-07-31T12:21:16.590Z,30.97
2022-07-31T12:23:46.496Z,30.96
2022-07-31T12:26:23.082Z,30.95
2022-07-31T12:29:11.700Z,31.32
2022-07-31T12:31:49.444Z,31.78
2022-07-31T12:34:35.107Z,32.10
2022-07-31T12:37:04.716Z,32.26
2022-07-31T12:39:54.334Z,32.12
2022-07-31T12:42:30.851Z,31.66
2022-07-31T12:45:18.502Z,31.36
2022-07-31T12:47:51.748Z,31.18
2022-07-31T12:50:22.799Z,31.64
2022-07-31T12:52:49.394Z,31.84
2022-07-31T12:55:17.357Z,32.01
2022-07-31T12:57:51.344Z,32.12
2022-07-31T13:00:22.433Z,32.29
2022-07-31T13:02:49.164Z,32.25
2022-07-31T13:05:15.817Z,32.12
2022-07-31T13:07:42.242Z,32.04
2022-07-31T13:10:19.910Z,31.93
2022-07-31T13:12:50.609Z,32.03
2022-07-31T13:15:18.131Z,32.23
2022-07-31T13:17:48.109Z,32.43
2022-07-31T13:20:18.279Z,32.72
2022-07-31T13:22:44.707Z,32.55
2022-07-31T13:25:11.183Z,32.50
2022-07-31T13:27:37.643Z,32.46
2022-07-31T13:30:05.493Z,32.45
2022-07-31T13:32:32.060Z,32.47
2022-07-31T13:35:27.880Z,32.48
2022-07-31T13:37:46.401Z,32.27
2022-07-31T13:40:13.199Z,31.99
2022-07-31T13:42:39.701Z,31.73
2022-07-31T13:45:08.559Z,31.47
2022-07-31T13:47:51.504Z,31.17
2022-07-31T13:50:19.445Z,30.92
2022-07-31T13:52:45.904Z,30.70
2022-07-31T13:55:12.435Z,30.56
2022-07-31T13:57:38.824Z,30.38
2022-07-31T14:00:06.258Z,30.25
2022-07-31T14:02:32.724Z,30.25
2022-07-31T14:04:59.201Z,30.26
2022-07-31T14:07:45.632Z,30.48
2022-07-31T14:10:14.935Z,30.76
2022-07-31T14:12:43.639Z,30.84
2022-07-31T14:15:10.702Z,30.89
2022-07-31T14:17:37.184Z,30.82
2022-07-31T14:20:04.073Z,30.82
2022-07-31T14:22:30.814Z,30.68
2022-07-31T14:24:57.216Z,30.67
2022-07-31T14:27:23.617Z,30.69
2022-07-31T14:29:50.087Z,30.76
2022-07-31T14:32:16.568Z,30.81
2022-07-31T14:34:43.063Z,30.82
2022-07-31T14:37:09.453Z,30.78
2022-07-31T14:39:35.880Z,30.75
2022-07-31T14:42:09.194Z,30.75
2022-07-31T14:44:35.653Z,30.79
2022-07-31T14:47:02.199Z,30.84
2022-07-31T14:50:07.071Z,30.80
2022-07-31T14:52:15.317Z,30.88
2022-07-31T14:54:41.771Z,30.95
2022-07-31T14:57:08.307Z,31.00
2022-07-31T14:59:34.740Z,30.97
2022-07-31T15:02:01.152Z,30.92
2022-07-31T15:04:27.616Z,30.84
2022-07-31T15:07:07.656Z,30.78
2022-07-31T15:09:40.489Z,30.74
2022-07-31T15:12:07.312Z,30.65
2022-07-31T15:14:33.948Z,30.57
2022-07-31T15:17:00.408Z,30.49
2022-07-31T15:19:26.845Z,30.37
2022-07-31T15:22:09.811Z,30.33
2022-07-31T15:24:45.520Z,30.22
2022-07-31T15:27:16.175Z,30.20
2022-07-31T15:30:04.867Z,30.18
2022-07-31T15:32:29.596Z,30.10
2022-07-31T15:34:56.105Z,30.13
2022-07-31T15:37:22.573Z,30.13
2022-07-31T15:40:01.369Z,30.13
2022-07-31T15:42:34.036Z,30.10
2022-07-31T15:45:00.641Z,30.05
2022-07-31T15:47:27.068Z,30.04
2022-07-31T15:49:53.585Z,29.99
2022-07-31T15:52:20.120Z,30.06
2022-07-31T15:54:47.005Z,30.17
2022-07-31T15:57:13.723Z,30.53
2022-07-31T15:59:41.337Z,31.07
2022-07-31T16:02:07.746Z,31.46
2022-07-31T16:04:34.978Z,31.66
2022-07-31T16:07:01.755Z,31.98
2022-07-31T16:10:14.870Z,32.41
2022-07-31T16:12:35.466Z,32.80
2022-07-31T16:15:02.521Z,32.80
2022-07-31T16:17:37.765Z,32.54
2022-07-31T16:20:26.476Z,32.27
2022-07-31T16:22:56.237Z,32.39
2022-07-31T16:25:23.801Z,32.54
2022-07-31T16:27:50.238Z,32.36
2022-07-31T16:30:16.922Z,32.16
2022-07-31T16:32:43.368Z,31.88
2022-07-31T16:35:11.444Z,31.74
2022-07-31T16:37:51.516Z,31.51
2022-07-31T16:40:28.191Z,31.26
2022-07-31T16:43:49.365Z,30.90
2022-07-31T16:45:54.118Z,30.64
2022-07-31T16:48:21.051Z,30.50
2022-07-31T16:50:53.635Z,30.45
2022-07-31T16:54:11.170Z,30.48
2022-07-31T16:56:10.637Z,30.54
2022-07-31T16:58:37.073Z,30.55
2022-07-31T17:01:04.282Z,30.64
2022-07-31T17:03:59.504Z,30.61
2022-07-31T17:06:17.481Z,30.59
2022-07-31T17:08:43.948Z,30.42
2022-07-31T17:11:10.376Z,30.22
2022-07-31T17:13:36.759Z,30.04
2022-07-31T17:16:03.370Z,29.85
2022-07-31T17:18:29.779Z,29.70
2022-07-31T17:20:56.872Z,29.50
2022-07-31T17:23:43.209Z,29.41
2022-07-31T17:26:22.155Z,29.28
2022-07-31T17:28:50.455Z,29.11
2022-07-31T17:31:17.566Z,29.01
2022-07-31T17:33:58.485Z,28.97
2022-07-31T17:36:26.872Z,28.88
2022-07-31T17:38:53.328Z,28.84
2022-07-31T17:41:24.645Z,28.81
2022-07-31T17:43:53.634Z,28.77
2022-07-31T17:46:28.502Z,28.76
2022-07-31T17:49:03.229Z,28.70
2022-07-31T17:51:29.660Z,28.68
2022-07-31T17:53:59.555Z,28.71
2022-07-31T17:56:26.679Z,28.74
2022-07-31T17:58:53.276Z,28.78
2022-07-31T18:01:19.732Z,28.80
2022-07-31T18:03:46.209Z,28.75
2022-07-31T18:06:12.631Z,28.76
2022-07-31T18:08:39.079Z,28.72
2022-07-31T18:11:06.520Z,28.69
2022-07-31T18:13:47.820Z,28.70
2022-07-31T18:16:15.361Z,28.67
2022-07-31T18:18:41.826Z,28.63
2022-07-31T18:21:08.287Z,28.61
2022-07-31T18:23:34.743Z,28.56
2022-07-31T18:26:01.423Z,28.45
2022-07-31T18:28:27.853Z,28.41
2022-07-31T18:30:54.435Z,28.36
2022-07-31T18:33:21.878Z,28.34
2022-07-31T18:35:48.347Z,28.25
2022-07-31T18:38:14.803Z,28.18
2022-07-31T18:40:41.369Z,28.07
2022-07-31T18:43:08.282Z,28.04
2022-07-31T18:45:34.738Z,27.91
2022-07-31T18:48:01.260Z,27.87
2022-07-31T18:50:59.053Z,27.82
2022-07-31T18:53:16.080Z,27.77
2022-07-31T18:55:43.781Z,27.73
2022-07-31T18:58:10.441Z,27.69
2022-07-31T19:00:36.947Z,27.62
2022-07-31T19:03:04.452Z,27.55
2022-07-31T19:05:31.722Z,27.53
2022-07-31T19:07:58.154Z,27.49
2022-07-31T19:10:29.609Z,27.44
2022-07-31T19:12:58.700Z,27.42
2022-07-31T19:15:25.231Z,27.39
2022-07-31T19:17:51.706Z,27.35
2022-07-31T19:20:41.244Z,27.32
2022-07-31T19:23:12.663Z,27.29
2022-07-31T19:26:02.416Z,27.26
2022-07-31T19:28:27.199Z,27.22
2022-07-31T19:30:54.643Z,27.23
2022-07-31T19:33:21.132Z,27.21
2022-07-31T19:35:55.265Z,27.17
2022-07-31T19:38:25.302Z,27.13
2022-07-31T19:40:51.773Z,27.10
2022-07-31T19:43:20.269Z,27.05
2022-07-31T19:45:58.804Z,27.00
2022-07-31T19:48:35.205Z,26.94
2022-07-31T19:51:01.767Z,26.91
2022-07-31T19:53:28.276Z,26.87
2022-07-31T19:55:54.923Z,26.84
2022-07-31T19:58:21.661Z,26.80
2022-07-31T20:00:48.121Z,26.78
2022-07-31T20:03:14.593Z,26.71
2022-07-31T20:05:41.085Z,26.66
2022-07-31T20:08:08.009Z,26.62
2022-07-31T20:10:34.487Z,26.55
2022-07-31T20:13:00.908Z,26.48
2022-07-31T20:15:27.516Z,26.43
2022-07-31T20:18:26.880Z,26.34
2022-07-31T20:20:56.869Z,26.27
2022-07-31T20:23:23.712Z,26.27
2022-07-31T20:25:50.243Z,26.25
2022-07-31T20:28:16.757Z,26.22
2022-07-31T20:30:43.187Z,26.21
2022-07-31T20:33:11.260Z,26.19
2022-07-31T20:35:48.718Z,26.17
2022-07-31T20:38:20.709Z,26.15
2022-07-31T20:40:53.329Z,26.14
2022-07-31T20:43:26.101Z,26.12
2022-07-31T20:45:53.720Z,26.10
2022-07-31T20:48:24.577Z,26.08
2022-07-31T20:50:52.043Z,26.01
2022-07-31T20:53:19.485Z,25.95
2022-07-31T20:55:49.121Z,25.88
2022-07-31T20:58:16.567Z,25.80
2022-07-31T21:00:43.045Z,25.71
2022-07-31T21:03:09.637Z,25.63
2022-07-31T21:05:36.076Z,25.56
2022-07-31T21:08:02.892Z,25.49
2022-07-31T21:10:30.049Z,25.43
2022-07-31T21:12:57.293Z,25.41
2022-07-31T21:15:42.444Z,25.38
2022-07-31T21:18:13.214Z,25.32
2022-07-31T21:20:52.211Z,25.30
2022-07-31T21:23:21.620Z,25.27
2022-07-31T21:25:48.444Z,25.25
2022-07-31T21:28:15.165Z,25.23
2022-07-31T21:30:41.632Z,25.20
2022-07-31T21:33:09.252Z,25.22
2022-07-31T21:35:37.562Z,25.20
2022-07-31T21:38:04.473Z,25.20
2022-07-31T21:40:33.803Z,25.18
2022-07-31T21:43:00.543Z,25.19
2022-07-31T21:45:39.559Z,25.17
2022-07-31T21:48:15.305Z,25.13
2022-07-31T21:50:43.357Z,25.13
2022-07-31T21:53:10.072Z,25.13
2022-07-31T21:55:38.090Z,25.12
2022-07-31T21:58:05.657Z,25.09
2022-07-31T22:00:34.053Z,25.07
2022-07-31T22:03:01.005Z,25.06
2022-07-31T22:05:46.162Z,25.07
2022-07-31T22:08:13.945Z,25.02
2022-07-31T22:10:40.552Z,25.00
2022-07-31T22:13:07.608Z,24.94
2022-07-31T22:15:58.988Z,24.96
2022-07-31T22:18:20.960Z,24.92
2022-07-31T22:20:47.569Z,24.91
2022-07-31T22:23:14.314Z,24.92
2022-07-31T22:25:41.746Z,24.92
2022-07-31T22:28:08.646Z,24.91
2022-07-31T22:30:35.252Z,24.91
2022-07-31T22:33:01.817Z,24.89
2022-07-31T22:35:28.890Z,24.89
2022-07-31T22:37:55.707Z,24.88
2022-07-31T22:40:24.233Z,24.87
2022-07-31T22:42:56.043Z,24.84
2022-07-31T22:45:24.311Z,24.82
2022-07-31T22:47:50.910Z,24.82
2022-07-31T22:50:17.591Z,24.73
2022-07-31T22:52:44.053Z,24.71
2022-07-31T22:55:11.864Z,24.66
2022-07-31T22:57:40.752Z,24.56
2022-07-31T23:00:09.763Z,24.50
2022-07-31T23:02:36.938Z,24.46
2022-07-31T23:05:03.678Z,24.39
2022-07-31T23:07:30.142Z,24.36
2022-07-31T23:09:56.591Z,24.33
2022-07-31T23:12:28.284Z,24.27
2022-07-31T23:14:55.994Z,24.24
2022-07-31T23:17:23.208Z,24.24
2022-07-31T23:19:54.140Z,24.22
2022-07-31T23:22:30.732Z,24.21
2022-07-31T23:25:00.493Z,24.13
2022-07-31T23:27:26.923Z,24.09
2022-07-31T23:29:53.379Z,24.06
2022-07-31T23:32:19.809Z,24.00
2022-07-31T23:34:46.248Z,24.01
2022-07-31T23:37:12.899Z,24.01
2022-07-31T23:39:39.932Z,23.98
2022-07-31T23:42:24.874Z,23.95
2022-07-31T23:44:51.293Z,23.91
2022-07-31T23:47:17.738Z,23.91
2022-07-31T23:49:44.201Z,23.84
2022-07-31T23:52:10.813Z,23.83
2022-07-31T23:54:37.420Z,23.79
2022-07-31T23:57:04.089Z,23.73
2022-07-31T23:59:30.550Z,23.68
